Time;durP1;ratioP1;P1;durP2;ratioP2;P2;SDS_P1;SDS_P2;PMS_P1;PMS_P2;Temp;Humidity;BMP_temperature;BMP_pressure;BME280_temperature;BME280_humidity;BME280_pressure;Samples;Min_cycle;Max_cycle;Signal;HPM_P1;HPM_P2
2021/12/09 00:00:07;;;;;;;18.13;2.53;;;;;;;;;;5006682;28;20058;-68
2021/12/09 00:02:40;;;;;;;32.60;3.03;;;;;;;;;;5009460;28;20061;-67
2021/12/09 00:05:15;;;;;;;20.27;2.78;;;;;;;;;;4992841;28;20453;-71
2021/12/09 00:07:52;;;;;;;14.07;2.65;;;;;;;;;;5009622;28;20064;-68
2021/12/09 00:10:24;;;;;;;16.30;3.50;;;;;;;;;;4984870;28;20054;-68
2021/12/09 00:12:56;;;;;;;33.17;3.05;;;;;;;;;;5008613;28;20061;-68
2021/12/09 00:15:28;;;;;;;21.73;2.90;;;;;;;;;;5017510;28;20050;-68
2021/12/09 00:17:59;;;;;;;24.20;2.95;;;;;;;;;;4972753;28;20056;-70
2021/12/09 00:20:30;;;;;;;23.35;3.83;;;;;;;;;;4975252;28;20418;-67
2021/12/09 00:23:02;;;;;;;19.80;3.72;;;;;;;;;;4954483;28;20070;-68
2021/12/09 00:25:32;;;;;;;17.80;3.53;;;;;;;;;;4969858;28;20109;-67
2021/12/09 00:28:04;;;;;;;23.88;4.03;;;;;;;;;;4968472;28;20051;-71
2021/12/09 00:30:35;;;;;;;29.77;3.92;;;;;;;;;;4967384;28;20058;-70
2021/12/09 00:33:07;;;;;;;24.38;3.33;;;;;;;;;;4925514;29;20117;-68
2021/12/09 00:35:55;;;;;;;21.65;3.08;;;;;;;;;;4930714;29;20063;-68
2021/12/09 00:38:35;;;;;;;22.02;3.17;;;;;;;;;;4942001;28;20448;-68
2021/12/09 00:41:14;;;;;;;25.48;3.67;;;;;;;;;;4916296;29;20544;-70
2021/12/09 00:43:45;;;;;;;23.63;3.67;;;;;;;;;;4909250;29;20051;-68
2021/12/09 00:46:17;;;;;;;25.40;3.22;;;;;;;;;;4921669;29;20051;-69
2021/12/09 00:48:48;;;;;;;20.95;3.47;;;;;;;;;;4924371;29;20060;-68
2021/12/09 00:51:18;;;;;;;22.10;3.40;;;;;;;;;;4928583;29;20071;-68
2021/12/09 00:53:49;;;;;;;23.17;3.80;;;;;;;;;;4933890;28;20055;-68
2021/12/09 00:56:19;;;;;;;18.35;2.95;;;;;;;;;;4934360;29;20052;-69
2021/12/09 00:58:51;;;;;;;21.35;3.30;;;;;;;;;;4946358;28;20066;-69
2021/12/09 01:01:22;;;;;;;32.78;3.42;;;;;;;;;;4954055;28;20051;-68
2021/12/09 01:03:53;;;;;;;18.65;3.20;;;;;;;;;;4944999;28;20048;-69
2021/12/09 01:06:23;;;;;;;19.98;3.40;;;;;;;;;;4922166;29;20427;-69
2021/12/09 01:08:53;;;;;;;21.15;2.85;;;;;;;;;;4948041;28;20051;-68
2021/12/09 01:11:24;;;;;;;21.52;3.72;;;;;;;;;;4998638;28;20046;-69
2021/12/09 01:13:55;;;;;;;30.17;3.85;;;;;;;;;;5012260;28;20060;-70
2021/12/09 01:16:25;;;;;;;20.25;3.30;;;;;;;;;;4999416;28;20051;-68
2021/12/09 01:18:57;;;;;;;26.02;2.83;;;;;;;;;;4991804;28;20054;-69
2021/12/09 01:21:28;;;;;;;23.48;3.40;;;;;;;;;;4976959;28;20062;-69
2021/12/09 01:23:58;;;;;;;31.42;3.10;;;;;;;;;;4992653;28;20065;-69
2021/12/09 01:26:29;;;;;;;21.77;2.88;;;;;;;;;;4992749;28;20065;-69
2021/12/09 01:29:07;;;;;;;18.45;2.85;;;;;;;;;;4992655;28;20057;-69
2021/12/09 01:31:39;;;;;;;31.13;3.17;;;;;;;;;;4976238;28;20050;-69
2021/12/09 01:34:09;;;;;;;;;;;;;;;;;;4976676;28;20077;-68
2021/12/09 01:36:39;;;;;;;31.08;3.85;;;;;;;;;;4992398;28;19921;-69
2021/12/09 01:39:11;;;;;;;20.15;3.10;;;;;;;;;;4992330;28;20073;-68
2021/12/09 01:41:42;;;;;;;21.52;3.38;;;;;;;;;;5006163;28;20054;-70
2021/12/09 01:44:12;;;;;;;29.13;3.90;;;;;;;;;;5011833;28;20057;-68
2021/12/09 01:46:43;;;;;;;27.45;3.17;;;;;;;;;;5011912;28;20061;-68
2021/12/09 01:49:13;;;;;;;20.27;3.03;;;;;;;;;;4990659;28;20042;-69
2021/12/09 01:51:45;;;;;;;23.27;3.22;;;;;;;;;;4983332;28;20042;-68
2021/12/09 01:54:16;;;;;;;25.10;2.65;;;;;;;;;;4987919;28;20054;-76
2021/12/09 01:56:47;;;;;;;20.27;3.10;;;;;;;;;;4953853;28;20171;-69
2021/12/09 01:59:17;;;;;;;28.88;3.90;;;;;;;;;;4937225;29;20059;-69
2021/12/09 02:01:47;;;;;;;20.35;3.47;;;;;;;;;;4953320;29;20078;-68
2021/12/09 02:04:19;;;;;;;14.93;3.00;;;;;;;;;;4964050;28;20050;-69
2021/12/09 02:06:49;;;;;;;23.25;3.30;;;;;;;;;;4988242;28;20055;-68
2021/12/09 02:09:20;;;;;;;24.20;3.47;;;;;;;;;;4988104;28;20055;-71
2021/12/09 02:11:51;;;;;;;16.30;3.17;;;;;;;;;;4991457;28;20054;-69
2021/12/09 02:14:21;;;;;;;21.33;3.72;;;;;;;;;;4991771;28;20439;-68
2021/12/09 02:16:52;;;;;;;13.63;3.20;;;;;;;;;;4991242;28;20066;-68
2021/12/09 02:19:22;;;;;;;27.58;4.10;;;;;;;;;;4991752;28;20054;-68
2021/12/09 02:21:55;;;;;;;29.55;3.85;;;;;;;;;;4974479;28;20042;-68
2021/12/09 02:24:26;;;;;;;23.88;3.65;;;;;;;;;;4991563;28;20054;-68
2021/12/09 02:26:56;;;;;;;21.80;3.10;;;;;;;;;;4991391;28;20057;-69
2021/12/09 02:29:26;;;;;;;24.65;3.20;;;;;;;;;;4991782;28;20058;-69
2021/12/09 02:31:58;;;;;;;18.98;3.42;;;;;;;;;;4990821;28;20058;-69
2021/12/09 02:34:29;;;;;;;19.45;2.97;;;;;;;;;;4962183;28;20058;-68
2021/12/09 02:36:59;;;;;;;16.80;4.30;;;;;;;;;;4952281;29;20055;-68
2021/12/09 02:39:30;;;;;;;19.30;3.88;;;;;;;;;;4952647;29;20055;-67
2021/12/09 02:42:00;;;;;;;19.63;3.70;;;;;;;;;;4920385;29;20055;-69
2021/12/09 02:44:31;;;;;;;19.15;4.38;;;;;;;;;;4952836;28;20059;-68
2021/12/09 02:47:02;;;;;;;19.77;4.10;;;;;;;;;;4939359;28;20055;-68
2021/12/09 02:49:33;;;;;;;20.27;3.65;;;;;;;;;;4956026;28;20113;-68
2021/12/09 02:52:05;;;;;;;20.45;4.10;;;;;;;;;;4971427;28;20066;-68
2021/12/09 02:54:35;;;;;;;18.33;3.97;;;;;;;;;;4971644;28;20054;-68
2021/12/09 02:57:07;;;;;;;25.27;3.80;;;;;;;;;;4951927;29;20063;-68
2021/12/09 02:59:38;;;;;;;21.75;3.78;;;;;;;;;;4951186;29;20066;-69
2021/12/09 03:02:10;;;;;;;18.25;3.78;;;;;;;;;;4955808;28;20074;-69
2021/12/09 03:04:48;;;;;;;16.55;3.85;;;;;;;;;;4958784;28;20056;-69
2021/12/09 03:07:29;;;;;;;26.23;4.57;;;;;;;;;;4990366;28;20054;-69
2021/12/09 03:10:10;;;;;;;22.90;4.55;;;;;;;;;;4990917;28;20062;-68
2021/12/09 03:12:41;;;;;;;17.23;4.63;;;;;;;;;;4990560;28;20058;-68
2021/12/09 03:15:12;;;;;;;12.43;3.72;;;;;;;;;;4979897;28;20050;-68
2021/12/09 03:17:43;;;;;;;19.35;3.75;;;;;;;;;;4990713;28;20062;-69
2021/12/09 03:20:16;;;;;;;18.88;3.47;;;;;;;;;;4990330;28;20058;-68
2021/12/09 03:22:48;;;;;;;12.98;3.42;;;;;;;;;;4990626;28;20431;-69
2021/12/09 03:25:20;;;;;;;18.00;3.13;;;;;;;;;;4990418;28;20066;-68
2021/12/09 03:27:52;;;;;;;13.48;3.15;;;;;;;;;;4974244;28;20046;-70
2021/12/09 03:30:24;;;;;;;12.25;3.63;;;;;;;;;;4932449;29;20074;-70
2021/12/09 03:32:56;;;;;;;17.67;3.40;;;;;;;;;;4932228;29;20586;-70
2021/12/09 03:35:29;;;;;;;19.48;3.92;;;;;;;;;;4964435;28;20050;-70
2021/12/09 03:38:00;;;;;;;13.00;3.85;;;;;;;;;;4955375;28;20050;-70
2021/12/09 03:40:31;;;;;;;18.02;3.28;;;;;;;;;;4951598;29;20059;-69
2021/12/09 03:43:01;;;;;;;15.13;3.80;;;;;;;;;;4951485;29;20055;-68
2021/12/09 03:45:31;;;;;;;14.77;3.88;;;;;;;;;;4951021;28;20050;-68
2021/12/09 03:48:02;;;;;;;13.05;3.40;;;;;;;;;;4951753;29;20491;-69
2021/12/09 03:50:33;;;;;;;25.17;3.63;;;;;;;;;;4951535;29;20063;-69
2021/12/09 03:53:04;;;;;;;24.08;4.85;;;;;;;;;;4974460;28;20054;-69
2021/12/09 03:55:34;;;;;;;20.10;3.65;;;;;;;;;;4957672;28;20050;-68
2021/12/09 03:58:05;;;;;;;17.35;4.45;;;;;;;;;;4957778;28;20518;-71
2021/12/09 04:00:35;;;;;;;25.75;4.95;;;;;;;;;;4989972;28;20141;-71
2021/12/09 04:03:06;;;;;;;18.08;4.72;;;;;;;;;;4989771;28;20443;-69
2021/12/09 04:05:37;;;;;;;14.70;4.75;;;;;;;;;;4970189;28;20427;-69
2021/12/09 04:08:07;;;;;;;17.98;5.93;;;;;;;;;;4943924;28;20791;-69
2021/12/09 04:10:39;;;;;;;15.15;3.42;;;;;;;;;;4951438;28;20063;-69
2021/12/09 04:13:09;;;;;;;13.57;3.35;;;;;;;;;;4951115;28;20054;-69
2021/12/09 04:15:40;;;;;;;17.85;4.00;;;;;;;;;;4951119;28;20055;-76
2021/12/09 04:18:11;;;;;;;11.70;3.40;;;;;;;;;;4962478;28;20063;-69
2021/12/09 04:20:42;;;;;;;13.15;3.63;;;;;;;;;;4974624;28;20414;-69
2021/12/09 04:23:12;;;;;;;12.23;3.70;;;;;;;;;;5005473;28;20535;-69
2021/12/09 04:25:42;;;;;;;18.70;3.17;;;;;;;;;;5017081;28;20037;-69
2021/12/09 04:28:13;;;;;;;12.40;2.83;;;;;;;;;;5033280;28;20060;-69
2021/12/09 04:30:44;;;;;;;19.00;3.10;;;;;;;;;;5033081;28;20061;-69
2021/12/09 04:33:14;;;;;;;10.77;3.42;;;;;;;;;;5032915;28;20073;-69
2021/12/09 04:35:45;;;;;;;8.82;2.30;;;;;;;;;;5016383;28;20096;-68
2021/12/09 04:38:16;;;;;;;12.25;2.20;;;;;;;;;;5032698;28;20046;-70
2021/12/09 04:40:46;;;;;;;17.50;3.10;;;;;;;;;;5033233;28;20073;-69
2021/12/09 04:43:17;;;;;;;11.93;2.90;;;;;;;;;;5054723;28;20056;-69
2021/12/09 04:45:47;;;;;;;8.35;2.70;;;;;;;;;;5032600;28;20056;-69
2021/12/09 04:48:17;;;;;;;12.93;3.38;;;;;;;;;;4983693;28;20046;-69
2021/12/09 04:50:48;;;;;;;11.82;3.20;;;;;;;;;;5032679;28;20061;-69
2021/12/09 04:53:19;;;;;;;15.82;4.03;;;;;;;;;;4992739;28;20073;-70
2021/12/09 04:55:49;;;;;;;11.95;2.90;;;;;;;;;;4973482;28;20051;-69
2021/12/09 04:58:20;;;;;;;9.95;2.65;;;;;;;;;;4953941;29;20067;-70
2021/12/09 05:00:52;;;;;;;10.38;2.65;;;;;;;;;;4938359;29;20427;-69
2021/12/09 05:03:24;;;;;;;7.45;2.33;;;;;;;;;;4953940;29;20047;-68
2021/12/09 05:05:56;;;;;;;13.18;3.30;;;;;;;;;;4906771;29;20059;-69
2021/12/09 05:08:28;;;;;;;;;;;;;;;;;;4954362;29;20063;-70
2021/12/09 05:13:37;;;;;;;14.55;2.58;;;;;;;;;;4953917;29;20047;-70
2021/12/09 05:16:10;;;;;;;10.65;2.78;;;;;;;;;;4922238;29;20551;-70
2021/12/09 05:18:42;;;;;;;8.98;2.65;;;;;;;;;;4887686;29;20052;-70
2021/12/09 05:21:13;;;;;;;6.65;2.20;;;;;;;;;;4934927;29;20606;-70
2021/12/09 05:23:44;;;;;;;8.05;2.50;;;;;;;;;;4926814;29;20059;-70
2021/12/09 05:26:16;;;;;;;7.40;2.50;;;;;;;;;;4919086;29;20435;-73
2021/12/09 05:28:54;;;;;;;8.40;2.80;;;;;;;;;;4934631;29;20115;-69
2021/12/09 05:34:16;;;;;;;12.13;2.88;;;;;;;;;;4972646;28;20400;-70
2021/12/09 05:36:47;;;;;;;9.57;2.92;;;;;;;;;;4941450;28;20069;-71
2021/12/09 05:39:17;;;;;;;9.23;2.33;;;;;;;;;;4921984;29;20059;-69
2021/12/09 05:41:48;;;;;;;8.52;2.60;;;;;;;;;;4968853;28;20062;-69
2021/12/09 05:44:35;;;;;;;9.35;2.60;;;;;;;;;;4953325;28;20058;-72
2021/12/09 05:47:07;;;;;;;6.78;3.03;;;;;;;;;;4953295;29;20070;-70
2021/12/09 05:49:40;;;;;;;12.10;3.00;;;;;;;;;;4953297;29;20051;-71
2021/12/09 05:52:12;;;;;;;12.15;2.78;;;;;;;;;;4933877;29;20066;-70
2021/12/09 05:54:44;;;;;;;15.40;2.60;;;;;;;;;;4934333;29;20066;-69
2021/12/09 05:57:15;;;;;;;10.02;3.00;;;;;;;;;;4933432;29;20063;-70
2021/12/09 05:59:45;;;;;;;13.07;3.15;;;;;;;;;;4887016;29;20071;-70
2021/12/09 06:02:17;;;;;;;9.45;2.63;;;;;;;;;;4934850;29;20110;-70
2021/12/09 06:04:48;;;;;;;11.75;3.45;;;;;;;;;;4921121;29;20059;-70
2021/12/09 06:07:18;;;;;;;9.25;3.28;;;;;;;;;;4937147;29;20063;-71
2021/12/09 06:09:48;;;;;;;8.63;2.38;;;;;;;;;;4906165;28;20062;-70
2021/12/09 06:12:19;;;;;;;6.15;2.30;;;;;;;;;;4952930;29;20098;-69
2021/12/09 06:14:50;;;;;;;12.45;2.95;;;;;;;;;;4953130;29;20623;-70
2021/12/09 06:17:21;;;;;;;8.38;3.15;;;;;;;;;;4952674;28;20556;-71
2021/12/09 06:19:51;;;;;;;10.05;3.17;;;;;;;;;;4953032;28;20423;-70
2021/12/09 06:22:21;;;;;;;10.52;3.58;;;;;;;;;;4977919;28;20123;-70
2021/12/09 06:24:52;;;;;;;10.93;3.50;;;;;;;;;;4991651;28;20051;-71
2021/12/09 06:27:22;;;;;;;11.98;3.40;;;;;;;;;;4990896;28;20046;-71
2021/12/09 06:29:52;;;;;;;12.93;3.33;;;;;;;;;;4975454;28;20058;-70
2021/12/09 06:32:22;;;;;;;11.73;3.65;;;;;;;;;;4975383;28;20061;-70
2021/12/09 06:34:56;;;;;;;10.95;3.40;;;;;;;;;;4991346;28;20054;-70
2021/12/09 06:37:26;;;;;;;9.63;3.17;;;;;;;;;;4991314;28;20050;-69
2021/12/09 06:39:56;;;;;;;9.27;3.55;;;;;;;;;;4991389;28;20053;-71
2021/12/09 06:42:26;;;;;;;12.40;3.17;;;;;;;;;;4990805;28;20058;-71
2021/12/09 06:44:57;;;;;;;9.43;2.90;;;;;;;;;;4991221;28;20515;-71
2021/12/09 06:47:27;;;;;;;9.23;2.97;;;;;;;;;;4942745;28;20074;-70
2021/12/09 06:49:57;;;;;;;15.68;2.97;;;;;;;;;;4991443;28;20069;-71
2021/12/09 06:52:28;;;;;;;7.47;2.75;;;;;;;;;;4991074;28;20058;-70
2021/12/09 06:55:02;;;;;;;7.05;3.00;;;;;;;;;;5001414;28;20409;-71
2021/12/09 06:57:33;;;;;;;9.25;3.22;;;;;;;;;;5010565;28;20046;-71
2021/12/09 07:00:07;;;;;;;16.67;3.47;;;;;;;;;;5001270;28;20058;-70
2021/12/09 07:02:37;;;;;;;8.55;2.90;;;;;;;;;;4946514;28;20417;-72
2021/12/09 07:05:08;;;;;;;15.60;3.35;;;;;;;;;;4990116;28;20054;-71
2021/12/09 07:07:39;;;;;;;10.10;3.08;;;;;;;;;;4990697;28;20062;-71
2021/12/09 07:10:13;;;;;;;12.30;3.45;;;;;;;;;;4990887;28;20059;-70
2021/12/09 07:12:44;;;;;;;8.15;3.63;;;;;;;;;;4958413;28;20054;-71
2021/12/09 07:15:15;;;;;;;6.93;2.65;;;;;;;;;;4990672;28;20465;-70
2021/12/09 07:17:46;;;;;;;10.65;2.80;;;;;;;;;;4958172;28;20658;-73
2021/12/09 07:20:19;;;;;;;9.43;3.53;;;;;;;;;;4958191;28;20050;-69
2021/12/09 07:22:51;;;;;;;9.95;3.05;;;;;;;;;;5009648;28;20054;-70
2021/12/09 07:25:22;;;;;;;18.27;3.10;;;;;;;;;;5009858;28;20049;-70
2021/12/09 07:27:54;;;;;;;6.68;2.85;;;;;;;;;;5009745;28;20057;-71
2021/12/09 07:30:26;;;;;;;8.07;2.88;;;;;;;;;;5010142;28;20050;-70
2021/12/09 07:32:57;;;;;;;10.60;3.10;;;;;;;;;;4989619;28;20054;-70
2021/12/09 07:35:30;;;;;;;8.82;3.38;;;;;;;;;;4990285;28;20061;-71
2021/12/09 07:38:03;;;;;;;12.18;3.15;;;;;;;;;;4977135;28;20057;-70
2021/12/09 07:40:34;;;;;;;9.10;2.80;;;;;;;;;;4971102;28;20055;-71
2021/12/09 07:43:05;;;;;;;11.63;3.17;;;;;;;;;;4962832;28;20516;-72
2021/12/09 07:45:36;;;;;;;8.63;2.72;;;;;;;;;;5009782;28;20421;-70
2021/12/09 07:48:06;;;;;;;7.63;2.47;;;;;;;;;;4977077;28;20075;-72
2021/12/09 07:50:38;;;;;;;9.32;3.03;;;;;;;;;;5009745;28;20061;-70
2021/12/09 07:53:08;;;;;;;8.75;2.85;;;;;;;;;;5009242;28;21174;-70
2021/12/09 07:55:38;;;;;;;9.45;2.45;;;;;;;;;;5009934;28;20065;-70
2021/12/09 07:58:09;;;;;;;7.97;2.70;;;;;;;;;;4970230;28;20051;-70
2021/12/09 08:00:39;;;;;;;13.95;3.15;;;;;;;;;;4959206;28;20427;-70
2021/12/09 08:03:10;;;;;;;8.25;2.63;;;;;;;;;;4951108;29;20062;-71
2021/12/09 08:05:44;;;;;;;10.38;3.20;;;;;;;;;;4970252;28;20545;-70
2021/12/09 08:08:15;;;;;;;8.23;3.05;;;;;;;;;;4938404;28;20057;-70
2021/12/09 08:10:45;;;;;;;8.00;2.78;;;;;;;;;;4959772;28;20051;-70
2021/12/09 08:13:15;;;;;;;8.40;2.40;;;;;;;;;;4951008;29;20055;-71
2021/12/09 08:15:49;;;;;;;5.50;2.63;;;;;;;;;;4970146;28;20051;-70
2021/12/09 08:20:52;;;;;;;11.63;2.58;;;;;;;;;;4970276;28;20131;-71
2021/12/09 08:23:24;;;;;;;7.65;2.92;;;;;;;;;;4969953;28;20059;-70
2021/12/09 08:25:57;;;;;;;12.57;2.97;;;;;;;;;;4970234;28;20054;-71
2021/12/09 08:28:27;;;;;;;9.18;3.00;;;;;;;;;;4970021;28;20540;-71
2021/12/09 08:30:59;;;;;;;6.60;2.70;;;;;;;;;;4970420;28;20062;-72
2021/12/09 08:33:30;;;;;;;7.93;2.95;;;;;;;;;;4969869;28;20047;-71
2021/12/09 08:36:00;;;;;;;11.68;2.53;;;;;;;;;;4957409;28;20074;-70
2021/12/09 08:38:30;;;;;;;10.10;2.45;;;;;;;;;;4989875;28;20050;-71
2021/12/09 08:41:01;;;;;;;7.60;2.72;;;;;;;;;;4973424;28;20062;-70
2021/12/09 08:43:32;;;;;;;7.20;2.97;;;;;;;;;;5000938;28;20054;-71
2021/12/09 08:46:06;;;;;;;16.52;3.65;;;;;;;;;;5008930;28;20050;-70
2021/12/09 08:48:36;;;;;;;7.07;2.47;;;;;;;;;;4950233;29;20044;-71
2021/12/09 08:51:06;;;;;;;10.70;2.92;;;;;;;;;;4950775;29;20095;-71
2021/12/09 08:53:37;;;;;;;7.38;2.83;;;;;;;;;;4958530;28;20047;-71
2021/12/09 08:56:08;;;;;;;16.67;3.22;;;;;;;;;;4950932;29;20066;-72
2021/12/09 08:58:39;;;;;;;10.52;2.97;;;;;;;;;;4950436;28;20054;-71
2021/12/09 09:01:12;;;;;;;8.55;2.78;;;;;;;;;;4950877;28;20067;-71
2021/12/09 09:03:42;;;;;;;9.57;2.67;;;;;;;;;;4919062;28;20508;-71
2021/12/09 09:06:13;;;;;;;10.50;2.30;;;;;;;;;;4954272;28;20458;-71
2021/12/09 09:08:44;;;;;;;10.20;2.72;;;;;;;;;;4954294;28;20067;-71
2021/12/09 09:11:14;;;;;;;9.43;2.70;;;;;;;;;;4954622;28;20055;-71
2021/12/09 09:13:45;;;;;;;9.02;2.70;;;;;;;;;;4954226;28;20059;-71
2021/12/09 09:16:16;;;;;;;9.75;2.92;;;;;;;;;;4921659;28;20423;-71
2021/12/09 09:18:47;;;;;;;10.50;2.65;;;;;;;;;;4964557;28;20065;-71
2021/12/09 09:21:17;;;;;;;9.65;2.63;;;;;;;;;;4974331;28;20414;-71
2021/12/09 09:23:48;;;;;;;8.68;2.50;;;;;;;;;;4993865;28;20536;-71
2021/12/09 09:26:18;;;;;;;7.22;2.35;;;;;;;;;;5020050;28;20620;-71
2021/12/09 09:28:50;;;;;;;18.02;2.70;;;;;;;;;;5006534;28;20065;-71
2021/12/09 09:31:24;;;;;;;11.02;3.13;;;;;;;;;;4979619;28;20058;-71
2021/12/09 09:33:54;;;;;;;15.15;2.55;;;;;;;;;;4991319;28;20050;-71
2021/12/09 09:36:24;;;;;;;11.98;2.88;;;;;;;;;;4983661;28;20061;-71
2021/12/09 09:39:06;;;;;;;11.95;2.72;;;;;;;;;;4952377;29;20047;-71
2021/12/09 09:41:36;;;;;;;7.13;2.42;;;;;;;;;;4952858;29;20081;-71
2021/12/09 09:44:13;;;;;;;11.60;2.45;;;;;;;;;;4950720;29;20055;-71
2021/12/09 09:46:45;;;;;;;11.70;2.22;;;;;;;;;;4921448;29;20047;-71
2021/12/09 09:49:15;;;;;;;9.13;2.33;;;;;;;;;;4951246;29;20054;-72
2021/12/09 09:51:46;;;;;;;14.93;2.50;;;;;;;;;;4914577;29;20063;-72
2021/12/09 09:54:17;;;;;;;11.43;2.60;;;;;;;;;;4915125;29;20071;-71
2021/12/09 09:56:49;;;;;;;6.35;2.65;;;;;;;;;;4915385;29;20109;-71
2021/12/09 09:59:20;;;;;;;11.13;2.85;;;;;;;;;;4914606;29;20508;-71
2021/12/09 10:01:53;;;;;;;12.48;3.00;;;;;;;;;;4899297;29;20390;-71
2021/12/09 10:04:44;;;;;;;12.18;2.90;;;;;;;;;;4868312;29;20056;-72
2021/12/09 10:07:19;;;;;;;9.38;2.50;;;;;;;;;;4915218;29;20109;-71
2021/12/09 10:09:50;;;;;;;8.93;2.47;;;;;;;;;;4930705;29;20071;-70
2021/12/09 10:12:21;;;;;;;10.88;2.45;;;;;;;;;;4914905;29;20416;-70
2021/12/09 10:14:55;;;;;;;12.55;2.55;;;;;;;;;;4914741;29;20068;-70
2021/12/09 10:17:27;;;;;;;12.77;3.15;;;;;;;;;;4981002;28;20058;-70
2021/12/09 10:20:11;;;;;;;9.65;3.03;;;;;;;;;;4975149;28;20462;-71
2021/12/09 10:22:41;;;;;;;15.18;2.88;;;;;;;;;;4991062;28;20042;-68
2021/12/09 10:25:19;;;;;;;9.77;2.63;;;;;;;;;;4991309;28;20062;-68
2021/12/09 10:28:04;;;;;;;14.45;2.90;;;;;;;;;;4991599;28;20069;-69
2021/12/09 10:30:39;;;;;;;16.48;3.10;;;;;;;;;;5011053;28;20078;-68
2021/12/09 10:33:11;;;;;;;9.40;2.70;;;;;;;;;;5010478;28;20041;-68
2021/12/09 10:35:43;;;;;;;9.23;2.65;;;;;;;;;;5010770;28;20053;-70
2021/12/09 10:38:13;;;;;;;9.93;2.40;;;;;;;;;;4950101;28;20049;-69
2021/12/09 10:40:43;;;;;;;7.18;1.60;;;;;;;;;;4958805;28;20561;-67
2021/12/09 10:43:18;;;;;;;8.13;1.77;;;;;;;;;;4961429;28;20055;-70
2021/12/09 10:45:48;;;;;;;9.07;1.80;;;;;;;;;;4920114;29;20054;-65
2021/12/09 10:53:46;;;;;;;4.75;1.20;;;;;;;;;;4943775;29;20047;-67
2021/12/09 10:56:30;;;;;;;8.30;1.17;;;;;;;;;;4929827;29;20074;-68
2021/12/09 10:59:02;;;;;;;11.02;1.83;;;;;;;;;;4919140;29;20469;-66
2021/12/09 11:01:34;;;;;;;5.40;0.93;;;;;;;;;;4920294;29;20054;-66
2021/12/09 11:04:05;;;;;;;9.25;1.40;;;;;;;;;;4921936;29;20052;-68
2021/12/09 11:06:37;;;;;;;4.05;1.13;;;;;;;;;;4932226;29;20048;-66
2021/12/09 11:09:12;;;;;;;8.30;1.30;;;;;;;;;;4932594;29;20059;-67
2021/12/09 11:11:47;;;;;;;7.78;1.40;;;;;;;;;;4922167;29;20440;-67
2021/12/09 11:14:21;;;;;;;4.45;1.13;;;;;;;;;;4932476;29;20059;-68
2021/12/09 11:17:04;;;;;;;3.67;1.02;;;;;;;;;;4949406;29;20062;-66
2021/12/09 11:19:40;;;;;;;6.80;1.67;;;;;;;;;;4950957;28;20044;-68
2021/12/09 11:22:18;;;;;;;8.02;1.42;;;;;;;;;;4935119;29;20055;-69
2021/12/09 11:24:57;;;;;;;4.22;1.23;;;;;;;;;;4950211;29;20062;-68
2021/12/09 11:27:30;;;;;;;7.00;1.23;;;;;;;;;;4949626;28;20050;-66
2021/12/09 11:30:12;;;;;;;;;;;;;;;;;;4950043;28;20055;-66
2021/12/09 11:32:51;;;;;;;8.90;1.30;;;;;;;;;;4931055;29;19929;-67
2021/12/09 11:35:30;;;;;;;4.95;1.20;;;;;;;;;;4931849;29;20068;-67
2021/12/09 11:38:19;;;;;;;6.22;1.77;;;;;;;;;;4935897;29;20058;-66
2021/12/09 11:40:51;;;;;;;6.22;1.10;;;;;;;;;;4950796;29;20059;-66
2021/12/09 11:43:26;;;;;;;9.10;1.30;;;;;;;;;;4953898;28;20050;-66
2021/12/09 11:46:00;;;;;;;4.85;1.50;;;;;;;;;;4965459;28;20116;-69
2021/12/09 11:48:31;;;;;;;10.07;1.60;;;;;;;;;;4906469;29;20089;-67
2021/12/09 11:51:03;;;;;;;4.47;1.42;;;;;;;;;;4875284;29;20070;-67
2021/12/09 11:53:37;;;;;;;8.65;1.70;;;;;;;;;;4850445;29;20057;-67
2021/12/09 11:56:21;;;;;;;5.50;1.23;;;;;;;;;;4839795;29;20078;-67
2021/12/09 12:11:29;;;;;;;5.05;1.50;;;;;;;;;;4867857;29;20453;-64
2021/12/09 12:16:37;;;;;;;4.20;1.02;;;;;;;;;;4875613;29;20069;-63
2021/12/09 12:19:17;;;;;;;8.60;1.35;;;;;;;;;;4873245;29;20061;-64
2021/12/09 12:22:00;;;;;;;4.20;1.30;;;;;;;;;;4908148;29;20056;-65
2021/12/09 12:25:01;;;;;;;7.60;1.50;;;;;;;;;;4925858;29;20061;-66
2021/12/09 12:27:40;;;;;;;6.65;1.60;;;;;;;;;;4968176;28;20046;-63
2021/12/09 12:36:16;;;;;;;7.68;1.83;;;;;;;;;;5009388;28;20498;-63
2021/12/09 12:39:05;;;;;;;6.35;1.58;;;;;;;;;;4977337;28;20077;-64
2021/12/09 12:42:02;;;;;;;4.95;1.48;;;;;;;;;;4977503;28;20557;-63
2021/12/09 12:44:35;;;;;;;6.32;1.33;;;;;;;;;;4993313;28;20090;-67
2021/12/09 12:47:36;;;;;;;4.70;1.63;;;;;;;;;;4993465;28;20059;-63
2021/12/09 12:50:12;;;;;;;5.88;2.03;;;;;;;;;;4938206;29;20066;-64
2021/12/09 12:52:44;;;;;;;7.07;2.00;;;;;;;;;;4918494;29;20051;-64
2021/12/09 12:55:24;;;;;;;9.90;1.95;;;;;;;;;;4942921;29;20186;-64
2021/12/09 12:58:07;;;;;;;14.23;2.58;;;;;;;;;;4922688;29;20070;-69
2021/12/09 13:00:43;;;;;;;17.25;3.13;;;;;;;;;;4919120;29;20051;-70
2021/12/09 13:03:33;;;;;;;35.60;4.57;;;;;;;;;;4931773;29;20063;-65
2021/12/09 13:06:14;;;;;;;11.75;3.10;;;;;;;;;;4916203;29;20067;-67
2021/12/09 13:11:45;;;;;;;8.52;2.60;;;;;;;;;;4933492;29;20063;-65
2021/12/09 13:14:23;;;;;;;3.88;1.95;;;;;;;;;;4954129;29;20062;-66
2021/12/09 13:17:08;;;;;;;;;;;;;;;;;;4954522;29;20467;-66
2021/12/09 13:19:53;;;;;;;7.38;2.33;;;;;;;;;;4953517;29;19930;-65
2021/12/09 13:22:36;;;;;;;8.77;2.55;;;;;;;;;;4960353;28;20097;-66
2021/12/09 13:25:30;;;;;;;6.75;2.30;;;;;;;;;;4992584;28;20062;-65
2021/12/09 13:28:04;;;;;;;5.68;2.28;;;;;;;;;;5005865;28;20057;-67
2021/12/09 13:39:13;;;;;;;6.35;2.35;;;;;;;;;;4973077;28;20062;-63
2021/12/09 13:50:20;;;;;;;6.18;2.15;;;;;;;;;;4972761;28;20490;-65
2021/12/09 13:55:25;;;;;;;6.60;2.53;;;;;;;;;;4972548;28;20058;-65
2021/12/09 13:57:57;;;;;;;7.10;1.98;;;;;;;;;;4987346;28;20058;-65
2021/12/09 14:00:30;;;;;;;6.10;2.17;;;;;;;;;;4991509;28;20057;-68
2021/12/09 14:03:17;;;;;;;6.40;2.00;;;;;;;;;;4943623;28;20058;-64
2021/12/09 14:05:57;;;;;;;5.20;2.25;;;;;;;;;;4991446;28;20046;-66
2021/12/09 14:08:41;;;;;;;5.97;1.77;;;;;;;;;;4991718;28;20051;-66
2021/12/09 14:11:32;;;;;;;7.90;1.95;;;;;;;;;;4991820;28;21190;-62
2021/12/09 14:14:16;;;;;;;4.22;1.77;;;;;;;;;;4971811;28;20100;-65
2021/12/09 14:20:00;;;;;;;4.75;1.70;;;;;;;;;;5054872;28;20049;-65
2021/12/09 14:22:32;;;;;;;5.45;1.50;;;;;;;;;;4993624;28;20057;-65
2021/12/09 14:25:11;;;;;;;7.60;1.60;;;;;;;;;;5014322;28;20049;-66
2021/12/09 14:27:42;;;;;;;6.90;1.85;;;;;;;;;;5007239;28;20050;-68
2021/12/09 14:30:13;;;;;;;;;;;;;;;;;;4994784;28;20046;-65
2021/12/09 14:32:48;;;;;;;7.85;1.60;;;;;;;;;;4993778;28;19921;-65
2021/12/09 14:35:33;;;;;;;7.68;1.90;;;;;;;;;;4991072;28;20054;-65
2021/12/09 14:38:03;;;;;;;9.75;1.83;;;;;;;;;;4973487;28;20090;-65
2021/12/09 14:40:42;;;;;;;6.18;1.27;;;;;;;;;;4991199;28;20490;-66
2021/12/09 14:43:18;;;;;;;7.35;2.00;;;;;;;;;;4991329;28;20053;-65
2021/12/09 14:45:58;;;;;;;6.18;1.65;;;;;;;;;;4981393;28;20050;-65
2021/12/09 14:48:31;;;;;;;10.20;2.15;;;;;;;;;;4955977;28;20055;-65
2021/12/09 14:51:19;;;;;;;6.10;1.80;;;;;;;;;;4923895;28;20062;-66
2021/12/09 14:53:55;;;;;;;6.20;1.63;;;;;;;;;;4971728;28;20066;-64
2021/12/09 14:56:32;;;;;;;5.97;1.55;;;;;;;;;;4952397;29;20423;-65
2021/12/09 14:59:19;;;;;;;6.47;1.45;;;;;;;;;;4905701;28;20202;-66
2021/12/09 15:02:06;;;;;;;6.43;1.60;;;;;;;;;;4971285;28;20058;-69
2021/12/09 15:05:01;;;;;;;4.63;1.63;;;;;;;;;;4932797;29;20452;-63
2021/12/09 15:07:42;;;;;;;6.90;1.70;;;;;;;;;;4932699;29;20064;-63
2021/12/09 15:10:20;;;;;;;3.25;1.58;;;;;;;;;;4864064;29;20075;-62
2021/12/09 15:12:51;;;;;;;4.10;1.40;;;;;;;;;;4895011;29;20060;-65
2021/12/09 15:15:27;;;;;;;4.35;1.10;;;;;;;;;;4894841;29;20049;-64
2021/12/09 15:18:11;;;;;;;5.28;1.58;;;;;;;;;;4894931;29;20065;-65
2021/12/09 15:20:50;;;;;;;10.73;1.67;;;;;;;;;;4894867;29;20425;-64
2021/12/09 15:26:23;;;;;;;6.63;1.17;;;;;;;;;;4913384;29;20060;-66
2021/12/09 15:29:05;;;;;;;4.15;1.25;;;;;;;;;;4932176;29;20051;-66
2021/12/09 15:31:40;;;;;;;5.85;1.48;;;;;;;;;;4917019;29;20060;-68
2021/12/09 15:34:15;;;;;;;5.40;1.20;;;;;;;;;;4940215;29;20480;-63
2021/12/09 15:36:55;;;;;;;3.97;1.40;;;;;;;;;;4951734;29;20455;-63
2021/12/09 15:39:29;;;;;;;8.27;1.55;;;;;;;;;;4932153;29;20067;-64
2021/12/09 15:42:06;;;;;;;6.40;1.30;;;;;;;;;;4922373;29;20054;-65
2021/12/09 15:44:42;;;;;;;6.80;1.42;;;;;;;;;;4935996;29;20052;-63
2021/12/09 15:47:20;;;;;;;7.47;1.67;;;;;;;;;;4950957;28;20062;-65
2021/12/09 15:49:57;;;;;;;5.47;1.00;;;;;;;;;;4970718;28;20061;-63
2021/12/09 15:52:54;;;;;;;5.35;1.58;;;;;;;;;;4971052;28;20414;-62
2021/12/09 15:55:38;;;;;;;4.22;1.20;;;;;;;;;;4913498;29;20500;-65
2021/12/09 15:58:11;;;;;;;6.10;1.35;;;;;;;;;;4878379;29;20060;-64
2021/12/09 16:00:43;;;;;;;7.43;1.17;;;;;;;;;;4875498;29;20053;-65
2021/12/09 16:03:14;;;;;;;5.80;1.15;;;;;;;;;;4880280;29;20063;-64
2021/12/09 16:05:44;;;;;;;3.58;0.93;;;;;;;;;;4901346;29;20055;-63
2021/12/09 16:08:15;;;;;;;7.10;1.17;;;;;;;;;;4916665;29;20060;-64
2021/12/09 16:10:45;;;;;;;4.95;1.25;;;;;;;;;;4932267;29;20071;-64
2021/12/09 16:13:16;;;;;;;6.05;1.30;;;;;;;;;;4916052;29;20063;-64
2021/12/09 16:15:56;;;;;;;6.50;1.20;;;;;;;;;;4935921;29;20055;-63
2021/12/09 16:18:30;;;;;;;7.55;1.10;;;;;;;;;;4955045;29;20067;-64